Time;durP1;ratioP1;P1;durP2;ratioP2;P2;SDS_P1;SDS_P2;PMS_P1;PMS_P2;Temp;Humidity;BMP_temperature;BMP_pressure;BME280_temperature;BME280_humidity;BME280_pressure;Samples;Min_cycle;Max_cycle;Signal;HPM_P1;HPM_P2
2023/09/04 00:00:53;;;;;;;48.95;25.58;;;;;;;20.96;93.65;102199.66;7362907;19;20015;-65
2023/09/04 00:03:21;;;;;;;45.85;25.27;;;;;;;20.96;94.26;102205.03;7361453;19;20771;-62
2023/09/04 00:05:49;;;;;;;45.75;24.35;;;;;;;20.95;93.84;102198.81;7361464;19;20061;-58
2023/09/04 00:08:19;;;;;;;46.33;25.70;;;;;;;20.90;93.60;102191.38;7361219;19;20090;-60
2023/09/04 00:10:47;;;;;;;48.85;25.70;;;;;;;20.89;93.29;102187.03;7362275;19;20010;-58
2023/09/04 00:13:15;;;;;;;45.05;25.13;;;;;;;20.88;93.34;102188.03;7361538;19;20010;-60
2023/09/04 00:15:44;;;;;;;51.95;26.88;;;;;;;20.82;93.37;102178.09;7361711;19;20022;-59
2023/09/04 00:18:11;;;;;;;49.97;26.88;;;;;;;20.77;93.96;102179.66;7358847;19;20509;-59
2023/09/04 00:20:38;;;;;;;49.05;25.13;;;;;;;20.73;94.30;102178.38;7361619;19;20014;-59
2023/09/04 00:23:06;;;;;;;51.63;26.85;;;;;;;20.68;94.68;102186.13;7354579;19;20015;-58
2023/09/04 00:25:33;;;;;;;47.92;26.13;;;;;;;20.65;94.79;102181.16;7364544;19;20011;-59
2023/09/04 00:28:00;;;;;;;47.67;26.02;;;;;;;20.64;95.06;102183.00;7361395;19;20293;-60
2023/09/04 00:30:28;;;;;;;47.40;25.98;;;;;;;20.65;95.21;102178.47;7361593;19;20503;-60
2023/09/04 00:32:55;;;;;;;45.28;25.73;;;;;;;20.65;95.03;102175.78;7357550;19;20014;-60
2023/09/04 00:35:23;;;;;;;49.13;26.05;;;;;;;20.63;94.57;102181.31;7361124;19;20014;-60
2023/09/04 00:37:50;;;;;;;45.78;25.58;;;;;;;20.65;94.88;102178.47;7356848;19;20018;-60
2023/09/04 00:40:18;;;;;;;53.08;26.02;;;;;;;20.65;94.60;102178.47;7361954;19;20026;-60
2023/09/04 00:42:45;;;;;;;51.90;27.88;;;;;;;20.63;94.74;102177.81;7359859;19;20010;-57
2023/09/04 00:45:12;;;;;;;47.08;25.48;;;;;;;20.62;95.13;102181.53;7361042;19;20526;-61
2023/09/04 00:47:42;;;;;;;50.72;26.40;;;;;;;20.61;94.73;102180.69;7356880;19;20021;-58
2023/09/04 00:50:15;;;;;;;47.58;25.42;;;;;;;20.60;94.74;102171.00;7360787;19;20006;-57
2023/09/04 00:52:42;;;;;;;47.40;25.08;;;;;;;20.59;94.48;102173.84;7360132;19;20094;-60
2023/09/04 00:55:12;;;;;;;47.05;25.98;;;;;;;20.56;94.89;102168.88;7358535;19;20730;-60
2023/09/04 00:57:42;;;;;;;48.30;26.20;;;;;;;20.54;94.72;102161.03;7361000;19;20479;-61
2023/09/04 01:00:13;;;;;;;45.80;24.80;;;;;;;20.54;94.76;102154.84;7362027;19;20021;-61
2023/09/04 01:02:41;;;;;;;50.20;25.48;;;;;;;20.51;94.78;102153.41;7360731;19;20021;-58
2023/09/04 01:05:08;;;;;;;47.20;25.45;;;;;;;20.51;95.06;102148.06;7358150;19;20422;-62
2023/09/04 01:07:40;;;;;;;47.60;25.75;;;;;;;20.52;94.86;102140.84;7361138;19;20010;-59
2023/09/04 01:10:12;;;;;;;51.80;27.20;;;;;;;20.52;94.96;102141.66;7358813;19;20014;-59
2023/09/04 01:12:43;;;;;;;44.83;25.38;;;;;;;20.51;95.64;102142.69;7360448;19;20780;-57
2023/09/04 01:15:12;;;;;;;46.88;26.08;;;;;;;20.48;95.33;102138.53;7359454;19;20010;-58
2023/09/04 01:17:40;;;;;;;48.10;25.20;;;;;;;20.48;95.14;102149.22;7358586;19;20062;-59
2023/09/04 01:20:18;;;;;;;43.45;24.70;;;;;;;20.46;95.21;102137.06;7359271;19;20025;-57
2023/09/04 01:22:45;;;;;;;50.13;25.90;;;;;;;20.45;94.80;102141.59;7356278;19;20010;-58
2023/09/04 01:25:15;;;;;;;44.83;25.40;;;;;;;20.43;95.27;102140.09;7356569;19;20011;-59
2023/09/04 01:27:53;;;;;;;45.35;25.23;;;;;;;20.39;95.44;102139.66;7359445;19;20015;-59
2023/09/04 01:30:28;;;;;;;46.10;24.20;;;;;;;20.34;96.04;102135.88;7360818;19;20048;-60
2023/09/04 01:33:02;;;;;;;48.58;24.35;;;;;;;20.32;95.87;102130.69;7357593;19;20005;-57
2023/09/04 01:35:31;;;;;;;46.83;24.27;;;;;;;20.32;96.12;102129.88;7358824;19;20019;-59
2023/09/04 01:37:59;;;;;;;47.80;26.05;;;;;;;20.28;95.97;102123.19;7356701;19;20094;-61
2023/09/04 01:40:26;;;;;;;47.25;24.60;;;;;;;20.26;96.58;102126.09;7358282;19;20022;-60
2023/09/04 01:42:54;;;;;;;46.17;25.02;;;;;;;20.25;96.81;102120.91;7356964;19;20022;-59
2023/09/04 01:45:21;;;;;;;47.53;25.85;;;;;;;20.27;96.68;102124.22;7360680;19;20011;-59
2023/09/04 01:47:49;;;;;;;46.67;24.90;;;;;;;20.27;96.81;102121.53;7356313;19;20034;-58
2023/09/04 01:50:16;;;;;;;49.95;26.88;;;;;;;20.26;96.90;102131.44;7358076;19;20706;-60
2023/09/04 01:52:43;;;;;;;47.50;26.25;;;;;;;20.23;96.78;102125.59;7357890;19;20036;-60
2023/09/04 01:55:11;;;;;;;50.88;25.75;;;;;;;20.22;97.06;102122.09;7358405;19;20026;-59
2023/09/04 01:57:39;;;;;;;49.72;26.60;;;;;;;20.21;96.77;102120.47;7358327;19;20021;-61
2023/09/04 02:00:09;;;;;;;53.05;28.13;;;;;;;20.18;97.27;102110.13;7356770;19;20118;-58
2023/09/04 02:02:36;;;;;;;52.20;26.77;;;;;;;20.17;97.51;102107.63;7356750;19;20036;-58
2023/09/04 02:05:04;;;;;;;54.53;28.15;;;;;;;20.16;97.49;102093.44;7357910;19;20022;-59
2023/09/04 02:07:32;;;;;;;53.75;27.23;;;;;;;20.17;97.59;102099.59;7359745;19;20011;-59
2023/09/04 02:09:59;;;;;;;53.40;28.00;;;;;;;20.14;97.77;102098.13;7353172;19;20049;-58
2023/09/04 02:12:26;;;;;;;56.20;28.88;;;;;;;20.13;98.04;102098.31;7358543;19;21734;-60
2023/09/04 02:14:54;;;;;;;55.95;28.52;;;;;;;20.10;97.87;102102.19;7358686;19;20482;-59
2023/09/04 02:17:21;;;;;;;55.65;28.00;;;;;;;20.12;97.90;102107.34;7355312;19;20018;-55
2023/09/04 02:19:48;;;;;;;57.60;29.65;;;;;;;20.12;98.22;102105.50;7355873;19;20014;-58
2023/09/04 02:22:16;;;;;;;61.00;30.90;;;;;;;20.12;98.43;102107.34;7356931;19;20018;-57
2023/09/04 02:24:46;;;;;;;60.67;29.73;;;;;;;20.09;98.73;102100.53;7352177;19;20023;-61
2023/09/04 02:27:13;;;;;;;50.67;27.98;;;;;;;20.08;98.82;102104.22;7356450;19;20499;-61
2023/09/04 02:29:41;;;;;;;54.42;28.25;;;;;;;20.07;99.03;102108.72;7358764;19;20030;-59
2023/09/04 02:32:08;;;;;;;58.63;28.45;;;;;;;20.10;98.48;102096.03;7354906;19;20949;-59
2023/09/04 02:34:35;;;;;;;59.13;29.85;;;;;;;20.08;98.77;102098.88;7356341;19;20557;-58
2023/09/04 02:37:03;;;;;;;54.53;29.27;;;;;;;20.07;98.29;102098.03;7355402;19;20109;-59
2023/09/04 02:39:30;;;;;;;60.88;29.08;;;;;;;20.06;98.60;102098.25;7357710;19;20029;-59
2023/09/04 02:41:57;;;;;;;55.83;30.08;;;;;;;20.06;99.08;102107.06;7355740;19;20446;-59
2023/09/04 02:44:24;;;;;;;55.33;27.90;;;;;;;20.10;98.59;102093.34;7356733;19;20014;-60
2023/09/04 02:46:52;;;;;;;55.17;28.45;;;;;;;20.10;98.65;102096.84;7356873;19;20630;-59
2023/09/04 02:49:19;;;;;;;55.70;28.60;;;;;;;20.06;98.95;102099.03;7357725;19;20353;-59
2023/09/04 02:51:46;;;;;;;60.05;29.85;;;;;;;20.04;98.79;102093.06;7357573;19;20486;-61
2023/09/04 02:54:14;;;;;;;61.42;30.40;;;;;;;20.03;98.74;102083.38;7355249;19;20019;-59
2023/09/04 02:56:41;;;;;;;59.85;30.33;;;;;;;20.03;98.75;102085.22;7356828;19;20987;-57
2023/09/04 02:59:08;;;;;;;61.20;31.33;;;;;;;20.03;99.22;102091.41;7355594;19;20437;-60
2023/09/04 03:01:35;;;;;;;59.42;31.33;;;;;;;20.03;99.32;102086.06;7356483;19;20218;-60
2023/09/04 03:04:03;;;;;;;63.13;32.05;;;;;;;19.99;99.02;102087.44;7347772;19;20342;-60
2023/09/04 03:06:30;;;;;;;64.53;32.08;;;;;;;20.01;98.76;102084.59;7357300;19;20018;-60
2023/09/04 03:08:57;;;;;;;63.47;32.03;;;;;;;20.00;98.77;102082.94;7355551;19;20018;-59
2023/09/04 03:11:25;;;;;;;62.58;31.27;;;;;;;19.96;98.95;102077.09;7357012;19;20383;-59
2023/09/04 03:13:52;;;;;;;65.28;32.65;;;;;;;19.90;99.22;102069.00;7360330;19;20022;-59
2023/09/04 03:16:19;;;;;;;61.45;31.98;;;;;;;19.88;99.42;102071.84;7363908;19;20603;-60
2023/09/04 03:18:47;;;;;;;63.03;32.10;;;;;;;19.87;99.46;102072.03;7364498;19;20015;-61
2023/09/04 03:21:14;;;;;;;63.40;31.98;;;;;;;19.81;99.79;102065.56;7365004;19;20684;-59
2023/09/04 03:23:41;;;;;;;62.53;31.65;;;;;;;19.82;100.00;102067.25;7362864;19;20010;-58
2023/09/04 03:26:08;;;;;;;65.10;33.35;;;;;;;19.83;100.00;102066.22;7358870;19;20026;-58
2023/09/04 03:28:36;;;;;;;69.13;33.53;;;;;;;19.84;99.92;102064.41;7364531;19;20011;-61
2023/09/04 03:31:03;;;;;;;66.90;33.58;;;;;;;19.81;100.00;102067.44;7362492;19;20121;-58
2023/09/04 03:33:31;;;;;;;71.25;33.13;;;;;;;19.80;100.00;102063.94;7363213;19;20018;-58
2023/09/04 03:35:58;;;;;;;68.53;33.47;;;;;;;19.79;100.00;102069.47;7362328;19;20703;-60
2023/09/04 03:38:25;;;;;;;75.60;37.15;;;;;;;19.78;100.00;102063.28;7361758;19;20109;-60
2023/09/04 03:40:53;;;;;;;73.45;35.92;;;;;;;19.78;100.00;102057.09;7360542;19;20027;-59
2023/09/04 03:43:20;;;;;;;78.47;37.25;;;;;;;19.78;100.00;102052.59;7362324;19;20011;-61
2023/09/04 03:45:47;;;;;;;74.20;36.03;;;;;;;19.75;100.00;102055.66;7362701;19;20015;-58
2023/09/04 03:48:15;;;;;;;87.82;37.38;;;;;;;19.72;100.00;102045.31;7362343;19;20022;-58
2023/09/04 03:50:42;;;;;;;83.47;37.40;;;;;;;19.68;100.00;102046.69;7362786;19;20035;-59
2023/09/04 03:53:09;;;;;;;82.72;36.63;;;;;;;19.68;100.00;102048.53;7361291;19;20003;-60
2023/09/04 03:55:37;;;;;;;87.25;38.78;;;;;;;19.63;100.00;102052.56;7360385;19;20015;-56
2023/09/04 03:58:04;;;;;;;87.75;39.13;;;;;;;19.67;100.00;102053.03;7364303;19;20138;-60
2023/09/04 04:00:31;;;;;;;88.57;38.28;;;;;;;19.67;100.00;102050.38;7360764;19;20789;-60
2023/09/04 04:03:00;;;;;;;93.15;39.25;;;;;;;19.69;100.00;102044.84;7358936;19;20018;-57
2023/09/04 04:05:28;;;;;;;96.53;39.17;;;;;;;19.69;100.00;102051.03;7362109;19;20066;-61
2023/09/04 04:07:55;;;;;;;90.75;37.58;;;;;;;19.70;100.00;102051.84;7360377;19;20021;-61
2023/09/04 04:10:23;;;;;;;97.00;40.03;;;;;;;19.68;100.00;102052.03;7362328;19;20053;-60
2023/09/04 04:12:52;;;;;;;95.57;39.40;;;;;;;19.67;100.00;102041.53;7363335;19;20097;-60
2023/09/04 04:15:20;;;;;;;96.28;38.58;;;;;;;19.68;100.00;102044.00;7361121;19;20018;-60
2023/09/04 04:17:47;;;;;;;90.82;37.92;;;;;;;19.69;100.00;102047.53;7359355;19;20081;-61
2023/09/04 04:20:16;;;;;;;90.30;38.90;;;;;;;19.69;100.00;102040.34;7362526;19;20017;-59
2023/09/04 04:22:45;;;;;;;90.60;39.80;;;;;;;19.68;100.00;102046.69;7361033;19;20019;-59
2023/09/04 04:25:12;;;;;;;92.63;38.53;;;;;;;19.68;100.00;102048.53;7359205;19;20026;-60
2023/09/04 04:27:41;;;;;;;83.80;38.33;;;;;;;19.69;100.00;102042.19;7356618;19;20382;-60
2023/09/04 04:30:09;;;;;;;93.25;40.55;;;;;;;19.69;100.00;102045.69;7362978;19;20019;-59
2023/09/04 04:32:37;;;;;;;93.07;41.05;;;;;;;19.71;100.00;102037.50;7358960;19;20560;-59
2023/09/04 04:35:07;;;;;;;90.65;40.92;;;;;;;19.70;100.00;102028.66;7363201;19;20106;-58
2023/09/04 04:37:34;;;;;;;89.03;39.33;;;;;;;19.72;100.00;102025.78;7360284;19;20014;-59
2023/09/04 04:40:03;;;;;;;90.55;40.55;;;;;;;19.74;100.00;102027.25;7361396;19;20018;-59
2023/09/04 04:42:30;;;;;;;88.35;39.25;;;;;;;19.73;100.00;102022.09;7361612;19;20699;-59
2023/09/04 04:44:58;;;;;;;88.85;39.22;;;;;;;19.73;100.00;102024.78;7362021;19;20529;-60
2023/09/04 04:47:27;;;;;;;89.25;38.47;;;;;;;19.72;100.00;102018.59;7358233;19;20010;-60
2023/09/04 04:49:54;;;;;;;92.45;37.92;;;;;;;19.75;100.00;102025.44;7359101;19;20010;-59
2023/09/04 04:52:22;;;;;;;91.32;40.08;;;;;;;19.77;100.00;102026.06;7359664;19;20014;-57
2023/09/04 04:54:49;;;;;;;84.70;38.80;;;;;;;19.77;100.00;102021.53;7359686;19;20007;-58
2023/09/04 04:57:16;;;;;;;88.25;39.00;;;;;;;19.77;100.00;102031.41;7357939;19;20491;-56
2023/09/04 04:59:45;;;;;;;90.15;37.75;;;;;;;19.77;100.00;102026.06;7361921;19;20018;-58
2023/09/04 05:02:13;;;;;;;81.70;37.05;;;;;;;19.77;100.00;102026.06;7357189;19;20014;-61
2023/09/04 05:04:45;;;;;;;87.60;37.63;;;;;;;19.76;100.00;102027.91;7358813;19;20018;-61
2023/09/04 05:07:13;;;;;;;;;;;;;;;19.76;100.00;102027.09;7361680;19;20627;-61
2023/09/04 05:09:40;;;;;;;84.30;36.25;;;;;;;19.74;100.00;102029.09;7357377;19;19929;-60
2023/09/04 05:12:08;;;;;;;83.38;36.58;;;;;;;19.74;100.00;102024.59;7359409;19;20021;-63
2023/09/04 05:14:35;;;;;;;84.82;37.42;;;;;;;19.74;100.00;102026.44;7359514;19;20463;-59
2023/09/04 05:17:03;;;;;;;86.13;36.17;;;;;;;19.72;100.00;102025.78;7357858;19;20018;-58
2023/09/04 05:19:30;;;;;;;91.97;38.15;;;;;;;19.70;100.00;102025.97;7359645;19;20014;-60
2023/09/04 05:21:58;;;;;;;92.20;38.05;;;;;;;19.69;100.00;102027.00;7358551;19;20345;-59
2023/09/04 05:24:25;;;;;;;85.72;36.38;;;;;;;19.68;100.00;102017.31;7359977;19;20011;-56
2023/09/04 05:26:53;;;;;;;90.35;37.20;;;;;;;19.68;100.00;102021.81;7355888;19;20025;-58
2023/09/04 05:29:20;;;;;;;88.38;36.85;;;;;;;19.67;100.00;102033.50;7358505;19;20366;-60
2023/09/04 05:31:51;;;;;;;84.43;35.15;;;;;;;19.66;100.00;102040.69;7356515;19;20024;-59
2023/09/04 05:34:19;;;;;;;83.68;34.33;;;;;;;19.64;100.00;102043.56;7358917;19;20014;-60
2023/09/04 05:36:46;;;;;;;90.78;37.25;;;;;;;19.65;100.00;102033.72;7357822;19;20052;-59
2023/09/04 05:39:14;;;;;;;82.72;34.53;;;;;;;19.58;100.00;102038.94;7358701;19;20739;-61
2023/09/04 05:41:41;;;;;;;84.18;33.80;;;;;;;19.57;100.00;102037.28;7359956;19;20494;-59
2023/09/04 05:44:08;;;;;;;90.57;34.67;;;;;;;19.58;100.00;102041.63;7360059;19;20034;-59
2023/09/04 05:46:36;;;;;;;82.40;33.50;;;;;;;19.57;100.00;102039.94;7356458;19;20026;-58
2023/09/04 05:49:03;;;;;;;86.32;33.90;;;;;;;19.58;100.00;102038.94;7356736;19;20015;-61
2023/09/04 05:51:30;;;;;;;85.78;33.58;;;;;;;19.57;100.00;102041.78;7356842;19;20038;-58
2023/09/04 05:53:58;;;;;;;83.22;31.05;;;;;;;19.56;100.00;102035.59;7357478;19;20018;-60
2023/09/04 05:56:27;;;;;;;86.40;31.75;;;;;;;19.56;100.00;102035.59;7359662;19;20041;-59
2023/09/04 05:58:56;;;;;;;82.47;33.05;;;;;;;19.56;100.00;102032.09;7358578;19;20886;-60
2023/09/04 06:01:24;;;;;;;78.35;30.58;;;;;;;19.57;100.00;102042.63;7359699;19;20009;-60
2023/09/04 06:03:51;;;;;;;83.32;32.40;;;;;;;19.54;100.00;102036.81;7350843;19;20023;-60
2023/09/04 06:06:19;;;;;;;74.55;30.40;;;;;;;19.52;100.00;102033.50;7358280;19;20651;-59
2023/09/04 06:08:46;;;;;;;81.10;31.38;;;;;;;19.53;100.00;102027.97;7356921;19;20081;-60
2023/09/04 06:11:13;;;;;;;89.40;31.98;;;;;;;19.53;100.00;102029.81;7354859;19;20498;-61
2023/09/04 06:13:40;;;;;;;89.85;31.38;;;;;;;19.53;100.00;102027.16;7359711;19;20348;-59
2023/09/04 06:16:08;;;;;;;79.25;28.92;;;;;;;19.51;100.00;102021.13;7357693;19;20497;-60
2023/09/04 06:18:35;;;;;;;81.57;29.67;;;;;;;19.52;100.00;102028.16;7355295;19;20403;-60
2023/09/04 06:21:03;;;;;;;78.18;28.30;;;;;;;19.53;100.00;102025.31;7357144;19;20074;-60
2023/09/04 06:23:31;;;;;;;86.10;28.52;;;;;;;19.56;100.00;102022.25;7356873;19;20017;-57
2023/09/04 06:26:02;;;;;;;79.78;28.02;;;;;;;19.56;100.00;102024.09;7357955;19;20026;-57
2023/09/04 06:28:30;;;;;;;83.80;28.52;;;;;;;19.61;100.00;102024.38;7354382;19;20021;-59
2023/09/04 06:30:57;;;;;;;85.80;28.35;;;;;;;19.64;100.00;102024.88;7356650;19;20045;-60
2023/09/04 06:33:25;;;;;;;83.70;28.55;;;;;;;19.67;100.00;102023.66;7355714;19;20041;-60
2023/09/04 06:35:57;;;;;;;79.32;28.85;;;;;;;19.66;100.00;102018.50;7355740;19;20224;-61
2023/09/04 06:38:24;;;;;;;81.80;29.95;;;;;;;19.67;100.00;102026.31;7358003;19;20574;-61
2023/09/04 06:40:57;;;;;;;83.55;28.60;;;;;;;19.69;100.00;102024.31;7356856;19;20015;-60
2023/09/04 06:43:27;;;;;;;83.15;29.38;;;;;;;19.70;100.00;102025.16;7357442;19;20110;-60
2023/09/04 06:45:54;;;;;;;84.88;29.20;;;;;;;19.72;100.00;102034.63;7356849;19;20494;-59
2023/09/04 06:48:22;;;;;;;85.05;29.70;;;;;;;19.73;100.00;102038.13;7355200;19;20290;-59
2023/09/04 06:50:50;;;;;;;86.05;28.95;;;;;;;19.76;100.00;102043.13;7356813;19;21011;-58
2023/09/04 06:53:18;;;;;;;78.07;29.80;;;;;;;19.75;100.00;102042.28;7358110;19;20019;-62
2023/09/04 06:55:47;;;;;;;82.43;28.83;;;;;;;19.76;100.00;102043.91;7355651;19;20105;-61
2023/09/04 06:58:15;;;;;;;71.15;27.90;;;;;;;19.77;100.00;102034.06;7348550;19;20022;-61
2023/09/04 07:00:42;;;;;;;78.38;30.75;;;;;;;19.79;100.00;102029.38;7356784;19;21328;-61
2023/09/04 07:03:09;;;;;;;85.55;30.63;;;;;;;19.82;100.00;102029.84;7355104;19;20025;-59
2023/09/04 07:05:37;;;;;;;84.68;31.45;;;;;;;19.86;100.00;102028.44;7359668;19;20019;-61
2023/09/04 07:08:05;;;;;;;88.47;32.38;;;;;;;19.89;100.00;102024.59;7355394;19;20624;-60
2023/09/04 07:10:32;;;;;;;87.15;31.13;;;;;;;19.89;100.00;102027.28;7356908;19;20011;-60
2023/09/04 07:13:00;;;;;;;81.25;30.13;;;;;;;19.90;100.00;102019.06;7354890;19;21749;-57
2023/09/04 07:15:28;;;;;;;84.00;31.20;;;;;;;19.89;100.00;102028.09;7356939;19;20019;-59
2023/09/04 07:17:59;;;;;;;75.82;31.10;;;;;;;19.91;100.00;102022.59;7351339;19;20025;-60
2023/09/04 07:20:27;;;;;;;82.28;30.63;;;;;;;19.90;100.00;102024.41;7355659;19;20021;-58
2023/09/04 07:22:56;;;;;;;80.20;31.10;;;;;;;19.95;100.00;102023.88;7353434;19;20350;-59
2023/09/04 07:25:43;;;;;;;82.32;30.88;;;;;;;19.98;100.00;102018.97;7356255;19;20921;-61
2023/09/04 07:28:10;;;;;;;75.30;29.77;;;;;;;20.02;100.00;102020.25;7354361;19;20044;-60
2023/09/04 07:30:38;;;;;;;73.22;29.52;;;;;;;20.05;100.00;102019.06;7350974;19;20097;-60
2023/09/04 07:33:06;;;;;;;68.53;28.73;;;;;;;20.07;100.00;102014.34;7353949;19;20015;-59
2023/09/04 07:35:37;;;;;;;75.13;29.67;;;;;;;20.08;100.00;102006.16;7358417;19;20034;-63
2023/09/04 07:38:04;;;;;;;68.30;28.58;;;;;;;20.10;100.00;102011.31;7353524;19;20086;-59
2023/09/04 07:40:32;;;;;;;66.57;28.20;;;;;;;20.12;100.00;102009.28;7354662;19;20014;-58
2023/09/04 07:43:01;;;;;;;65.10;28.10;;;;;;;20.17;100.00;102003.38;7326858;19;20006;-59
2023/09/04 07:45:29;;;;;;;67.40;28.27;;;;;;;20.20;100.00;102011.03;7352378;19;20043;-59
2023/09/04 07:47:59;;;;;;;67.20;27.05;;;;;;;20.25;100.00;102003.28;7341834;19;20030;-59
2023/09/04 07:50:28;;;;;;;70.50;28.27;;;;;;;20.27;100.00;102007.41;7354726;19;20038;-60
2023/09/04 07:52:57;;;;;;;63.33;26.05;;;;;;;20.32;100.00;102005.03;7352111;19;20013;-59
2023/09/04 07:55:29;;;;;;;64.38;27.08;;;;;;;20.40;99.20;102009.44;7355898;19;20019;-61
2023/09/04 07:58:21;;;;;;;64.57;26.80;;;;;;;20.44;98.65;102014.22;7354256;19;20019;-60
2023/09/04 08:00:51;;;;;;;59.22;24.60;;;;;;;20.47;98.65;102005.00;7356745;19;20028;-60
2023/09/04 08:03:32;;;;;;;60.08;26.00;;;;;;;20.48;98.88;102004.81;7358748;19;20053;-60
2023/09/04 08:06:02;;;;;;;57.90;24.00;;;;;;;20.52;98.81;102002.59;7359955;19;20026;-58
2023/09/04 08:08:33;;;;;;;55.47;24.88;;;;;;;20.55;98.79;102002.22;7360515;19;20026;-60
2023/09/04 08:11:02;;;;;;;56.60;24.45;;;;;;;20.60;98.93;102007.81;7360299;19;20025;-59
2023/09/04 08:13:29;;;;;;;55.42;24.65;;;;;;;20.65;98.10;102005.41;7361890;19;20048;-61
2023/09/04 08:16:00;;;;;;;53.03;23.73;;;;;;;20.69;97.27;101995.97;7362938;19;20010;-60
2023/09/04 08:18:30;;;;;;;51.28;21.60;;;;;;;20.76;97.16;102002.25;7356587;19;20510;-59
2023/09/04 08:20:59;;;;;;;39.10;18.75;;;;;;;20.83;96.36;102004.97;7361112;19;21747;-58
2023/09/04 08:23:26;;;;;;;51.50;24.55;;;;;;;20.89;95.88;102004.19;7360955;19;20019;-58
2023/09/04 08:25:58;;;;;;;47.00;23.75;;;;;;;20.95;94.72;101994.59;7361562;19;20041;-60
2023/09/04 08:28:26;;;;;;;47.20;20.70;;;;;;;21.01;94.61;101994.66;7361474;19;20236;-59
2023/09/04 08:30:54;;;;;;;39.40;19.05;;;;;;;21.06;93.37;101992.22;7356288;19;20052;-59
2023/09/04 08:33:22;;;;;;;36.10;18.30;;;;;;;21.11;92.44;101986.28;7359652;19;20011;-61
2023/09/04 08:35:51;;;;;;;43.05;19.90;;;;;;;21.16;92.16;101991.91;7360808;19;21053;-60
2023/09/04 08:38:19;;;;;;;41.95;19.77;;;;;;;21.22;91.39;101991.97;7358466;19;20368;-59
2023/09/04 08:40:47;;;;;;;43.00;19.33;;;;;;;21.28;90.51;101996.53;7352533;19;20022;-60
2023/09/04 08:43:16;;;;;;;36.03;17.98;;;;;;;21.33;89.83;101980.72;7358143;19;20015;-57
2023/09/04 08:45:44;;;;;;;32.83;15.63;;;;;;;21.40;88.90;101980.78;7362932;19;20356;-59
2023/09/04 08:48:14;;;;;;;32.70;15.93;;;;;;;21.47;89.13;101980.81;7360631;19;20018;-59
2023/09/04 08:50:43;;;;;;;29.30;14.30;;;;;;;21.53;87.87;101985.41;7361952;19;20098;-60
2023/09/04 08:53:10;;;;;;;28.85;15.10;;;;;;;21.60;86.77;101983.56;7359594;19;20051;-59
2023/09/04 08:55:38;;;;;;;31.20;13.77;;;;;;;21.66;85.79;101980.94;7362387;19;20018;-61
2023/09/04 08:58:07;;;;;;;23.90;11.23;;;;;;;21.72;84.93;101973.97;7359060;19;20069;-62
2023/09/04 09:00:35;;;;;;;21.45;10.40;;;;;;;21.73;80.07;101984.50;7361977;19;20041;-59
2023/09/04 09:03:05;;;;;;;21.08;9.43;;;;;;;21.83;78.75;101983.31;7355431;19;20071;-59
2023/09/04 09:05:33;;;;;;;20.92;9.57;;;;;;;21.90;77.39;101979.63;7361365;19;20018;-56
2023/09/04 09:08:03;;;;;;;15.27;7.63;;;;;;;21.95;75.16;101969.16;7360229;19;20021;-60
2023/09/04 09:10:30;;;;;;;18.23;7.78;;;;;;;22.01;74.99;101970.22;7359626;19;20657;-57
2023/09/04 09:12:58;;;;;;;17.88;7.72;;;;;;;22.06;74.99;101975.81;7359774;19;20023;-62
2023/09/04 09:15:26;;;;;;;17.38;7.38;;;;;;;22.09;74.59;101970.91;7361404;19;20034;-61
2023/09/04 09:18:02;;;;;;;17.30;7.03;;;;;;;22.16;74.37;101971.72;7355277;19;20371;-57
2023/09/04 09:20:42;;;;;;;11.30;6.47;;;;;;;22.22;73.89;101970.09;7358813;19;20024;-59
2023/09/04 09:23:23;;;;;;;11.93;6.22;;;;;;;22.27;72.92;101967.66;7357403;19;20022;-59
2023/09/04 09:25:54;;;;;;;13.00;5.70;;;;;;;22.35;72.34;101963.97;7359537;19;20362;-57
2023/09/04 09:28:23;;;;;;;10.98;5.68;;;;;;;22.42;71.68;101962.94;7360423;19;20021;-60
2023/09/04 09:30:51;;;;;;;9.32;5.28;;;;;;;22.52;70.41;101962.53;7360406;19;20022;-59
2023/09/04 09:33:21;;;;;;;9.68;5.47;;;;;;;22.56;69.09;101964.63;7357281;19;20015;-59
2023/09/04 09:35:49;;;;;;;8.98;4.22;;;;;;;22.65;68.51;101951.84;7357685;19;20010;-60
2023/09/04 09:38:16;;;;;;;9.93;4.95;;;;;;;22.70;69.20;101952.06;7356574;19;20470;-59
2023/09/04 09:40:44;;;;;;;10.98;5.75;;;;;;;22.75;68.81;101949.63;7359025;19;20493;-60
2023/09/04 09:43:13;;;;;;;7.30;3.63;;;;;;;22.82;67.01;101953.13;7354552;19;20631;-59
2023/09/04 09:45:40;;;;;;;5.85;3.45;;;;;;;22.91;66.04;101953.72;7351841;19;20021;-61
2023/09/04 09:48:11;;;;;;;7.93;4.07;;;;;;;22.99;65.97;101953.53;7357198;19;20010;-60
2023/09/04 09:50:41;;;;;;;6.57;3.35;;;;;;;23.05;65.58;101951.91;7360016;19;20152;-60
2023/09/04 09:53:08;;;;;;;9.55;3.97;;;;;;;23.13;64.61;101951.66;7356843;19;20031;-59
2023/09/04 09:55:36;;;;;;;5.38;2.83;;;;;;;23.19;64.45;101948.16;7358934;19;20041;-59
2023/09/04 09:58:21;;;;;;;6.60;3.05;;;;;;;23.26;64.46;101938.25;7355606;19;20583;-60
2023/09/04 10:00:58;;;;;;;6.18;2.67;;;;;;;23.30;62.92;101939.47;7358582;19;20082;-59
2023/09/04 10:03:47;;;;;;;5.80;2.97;;;;;;;23.38;63.80;101942.75;7353134;19;20014;-59
2023/09/04 10:06:27;;;;;;;8.63;2.70;;;;;;;23.44;62.96;101939.22;7357745;19;20622;-59
2023/09/04 10:09:00;;;;;;;4.97;2.45;;;;;;;23.50;62.23;101945.66;7355800;19;20556;-59
2023/09/04 10:11:39;;;;;;;6.38;2.38;;;;;;;23.56;62.99;101942.13;7356619;19;20018;-60
2023/09/04 10:14:14;;;;;;;6.80;2.72;;;;;;;23.59;61.30;101933.63;7359157;19;20031;-61
2023/09/04 10:16:50;;;;;;;5.05;2.50;;;;;;;23.64;61.09;101927.63;7355567;19;20427;-60
2023/09/04 10:19:18;;;;;;;7.60;2.72;;;;;;;23.70;60.80;101927.63;7355456;19;20017;-59
2023/09/04 10:21:55;;;;;;;6.00;2.40;;;;;;;23.73;60.39;101919.09;7356641;19;20023;-62
2023/09/04 10:24:37;;;;;;;7.07;2.38;;;;;;;23.81;60.81;101918.06;7354609;19;20383;-61
2023/09/04 10:27:13;;;;;;;7.55;1.92;;;;;;;23.88;60.30;101913.47;7354699;19;20041;-59
2023/09/04 10:29:47;;;;;;;6.25;1.98;;;;;;;23.92;58.36;101912.03;7357165;19;20015;-60
2023/09/04 10:32:16;;;;;;;3.58;1.60;;;;;;;23.97;57.87;101904.13;7352852;19;20981;-61
2023/09/04 10:34:52;;;;;;;6.57;1.63;;;;;;;24.02;57.86;101912.38;7351318;19;20064;-60
2023/09/04 10:37:29;;;;;;;5.35;1.40;;;;;;;24.09;57.33;101898.88;7354217;19;20345;-61
2023/09/04 10:39:58;;;;;;;4.82;1.60;;;;;;;24.16;56.43;101897.00;7353403;19;20018;-60
2023/09/04 10:42:30;;;;;;;6.80;1.83;;;;;;;24.22;56.26;101902.38;7353825;19;20591;-60
2023/09/04 10:44:58;;;;;;;8.75;1.52;;;;;;;24.26;54.82;101898.19;7359046;19;20015;-59
2023/09/04 10:47:25;;;;;;;4.57;1.40;;;;;;;24.32;54.58;101899.19;7355948;19;20599;-59
2023/09/04 10:49:52;;;;;;;4.80;1.50;;;;;;;24.38;54.05;101900.19;7356357;19;20019;-59
2023/09/04 10:52:21;;;;;;;3.03;1.63;;;;;;;24.43;54.03;101892.31;7356243;19;20454;-59
2023/09/04 10:55:12;;;;;;;1.77;0.90;;;;;;;24.46;52.30;101889.16;7357591;19;20018;-60
2023/09/04 10:57:46;;;;;;;4.03;1.05;;;;;;;24.51;51.55;101894.72;7357214;19;20049;-60
2023/09/04 11:00:28;;;;;;;4.03;1.20;;;;;;;24.52;50.73;101888.28;7355894;19;20011;-60
2023/09/04 11:03:15;;;;;;;3.22;1.23;;;;;;;24.58;51.27;101892.81;7354364;19;20019;-61
2023/09/04 11:06:04;;;;;;;3.53;1.15;;;;;;;24.64;51.71;101883.81;7353622;19;20023;-59
2023/09/04 11:08:51;;;;;;;3.65;1.45;;;;;;;24.66;51.47;101874.50;7355344;19;20022;-59
2023/09/04 11:11:26;;;;;;;3.35;1.20;;;;;;;24.71;50.18;101868.44;7354375;19;20018;-60
2023/09/04 11:14:09;;;;;;;5.45;0.98;;;;;;;24.79;50.06;101870.84;7352324;19;20019;-59
2023/09/04 11:16:42;;;;;;;4.93;1.25;;;;;;;24.86;50.61;101860.03;7353102;19;20014;-60
2023/09/04 11:19:15;;;;;;;5.35;1.05;;;;;;;24.91;51.30;101871.81;7351577;19;20076;-61